Time;durP1;ratioP1;P1;durP2;ratioP2;P2;SDS_P1;SDS_P2;PMS_P1;PMS_P2;Temp;Humidity;BMP_temperature;BMP_pressure;BME280_temperature;BME280_humidity;BME280_pressure;Samples;Min_cycle;Max_cycle;Signal;HPM_P1;HPM_P2
2023/03/01 00:01:06;;;;;;;27.02;15.38;;;;;;;;;;4995765;28;20050;-86
2023/03/01 00:03:34;;;;;;;28.20;16.38;;;;;;;;;;4995867;28;20046;-86
2023/03/01 00:06:02;;;;;;;30.67;16.73;;;;;;;;;;4994514;28;20054;-86
2023/03/01 00:08:29;;;;;;;30.98;16.42;;;;;;;;;;4995268;28;20491;-86
2023/03/01 00:11:01;;;;;;;25.90;16.38;;;;;;;;;;4994507;28;20051;-86
2023/03/01 00:13:29;;;;;;;27.70;15.48;;;;;;;;;;4995626;28;20050;-87
2023/03/01 00:15:56;;;;;;;29.60;15.98;;;;;;;;;;4994381;28;20052;-86
2023/03/01 00:18:23;;;;;;;31.13;16.70;;;;;;;;;;4993485;28;20055;-86
2023/03/01 00:20:51;;;;;;;30.40;17.33;;;;;;;;;;4994289;28;20419;-86
2023/03/01 00:23:19;;;;;;;34.13;16.98;;;;;;;;;;4995206;28;20058;-86
2023/03/01 00:25:46;;;;;;;27.00;15.98;;;;;;;;;;4995257;28;20133;-85
2023/03/01 00:28:13;;;;;;;27.83;16.00;;;;;;;;;;4994290;28;20056;-86
2023/03/01 00:30:40;;;;;;;31.95;16.80;;;;;;;;;;4995007;28;20236;-86
2023/03/01 00:33:08;;;;;;;30.50;17.10;;;;;;;;;;4995060;28;20062;-86
2023/03/01 00:35:35;;;;;;;29.35;16.52;;;;;;;;;;4993864;28;20050;-86
2023/03/01 00:38:03;;;;;;;27.27;16.83;;;;;;;;;;4993567;28;20129;-85
2023/03/01 00:40:32;;;;;;;28.33;16.77;;;;;;;;;;4993915;28;20054;-86
2023/03/01 00:42:59;;;;;;;28.42;16.25;;;;;;;;;;4994591;28;20077;-86
2023/03/01 00:45:27;;;;;;;30.77;16.35;;;;;;;;;;4994680;28;20074;-86
2023/03/01 00:47:54;;;;;;;29.48;15.73;;;;;;;;;;4993602;28;20050;-86
2023/03/01 00:50:22;;;;;;;24.70;15.25;;;;;;;;;;4993616;28;20407;-85
2023/03/01 00:52:52;;;;;;;26.23;15.82;;;;;;;;;;4994828;28;20076;-85
2023/03/01 00:55:19;;;;;;;28.85;16.20;;;;;;;;;;4993578;28;20053;-86
2023/03/01 00:57:46;;;;;;;26.85;15.07;;;;;;;;;;4993661;28;20486;-86
2023/03/01 01:00:14;;;;;;;25.00;15.45;;;;;;;;;;4997227;28;20046;-86
2023/03/01 01:02:41;;;;;;;26.83;14.95;;;;;;;;;;4993807;28;20077;-86
2023/03/01 01:05:08;;;;;;;27.75;15.23;;;;;;;;;;4993673;28;20430;-86
2023/03/01 01:07:36;;;;;;;27.60;14.90;;;;;;;;;;4994280;28;20050;-86
2023/03/01 01:10:03;;;;;;;24.95;14.32;;;;;;;;;;4993528;28;20501;-86
2023/03/01 01:12:31;;;;;;;28.42;14.82;;;;;;;;;;4994339;28;20273;-86
2023/03/01 01:14:58;;;;;;;24.48;14.95;;;;;;;;;;4994618;28;20046;-86
2023/03/01 01:17:25;;;;;;;26.90;14.48;;;;;;;;;;4994324;28;20088;-85
2023/03/01 01:19:52;;;;;;;34.53;15.05;;;;;;;;;;4993446;28;20133;-85
2023/03/01 01:22:20;;;;;;;29.38;15.20;;;;;;;;;;4993469;28;20403;-86
2023/03/01 01:24:47;;;;;;;28.02;15.50;;;;;;;;;;4994146;28;20054;-87
2023/03/01 01:27:14;;;;;;;29.85;15.70;;;;;;;;;;4994250;28;20483;-86
2023/03/01 01:29:41;;;;;;;28.17;15.32;;;;;;;;;;4994178;28;20085;-86
2023/03/01 01:32:09;;;;;;;29.73;15.88;;;;;;;;;;4993013;28;20058;-86
2023/03/01 01:34:36;;;;;;;29.95;16.92;;;;;;;;;;4994227;28;20491;-86
2023/03/01 01:37:03;;;;;;;28.60;16.30;;;;;;;;;;4994307;28;20129;-85
2023/03/01 01:39:30;;;;;;;29.88;16.50;;;;;;;;;;4993150;28;20515;-85
2023/03/01 01:41:58;;;;;;;30.35;16.77;;;;;;;;;;4993099;28;20042;-85
2023/03/01 01:44:26;;;;;;;27.75;16.27;;;;;;;;;;4992912;28;20486;-86
2023/03/01 01:46:56;;;;;;;30.08;16.48;;;;;;;;;;4994027;28;20112;-85
2023/03/01 01:49:23;;;;;;;28.33;16.70;;;;;;;;;;4993905;28;20491;-86
2023/03/01 01:51:52;;;;;;;33.38;17.05;;;;;;;;;;4993271;28;20085;-86
2023/03/01 01:54:32;;;;;;;28.38;16.27;;;;;;;;;;4992750;28;20472;-85
2023/03/01 01:57:00;;;;;;;26.13;15.88;;;;;;;;;;4993997;28;20077;-85
2023/03/01 01:59:29;;;;;;;25.38;15.38;;;;;;;;;;4992824;28;20050;-85
2023/03/01 02:01:58;;;;;;;33.17;17.08;;;;;;;;;;4993875;28;20054;-85
2023/03/01 02:04:25;;;;;;;30.80;16.83;;;;;;;;;;4993820;28;20058;-85
2023/03/01 02:06:57;;;;;;;37.03;16.75;;;;;;;;;;4993792;28;20384;-85
2023/03/01 02:09:24;;;;;;;28.13;16.17;;;;;;;;;;4993681;28;20054;-85
2023/03/01 02:11:52;;;;;;;29.45;16.42;;;;;;;;;;4992752;28;20141;-85
2023/03/01 02:14:19;;;;;;;29.80;15.85;;;;;;;;;;4993651;28;20049;-84
2023/03/01 02:16:47;;;;;;;28.70;16.25;;;;;;;;;;4992761;28;20057;-85
2023/03/01 02:19:24;;;;;;;27.75;16.38;;;;;;;;;;4992749;28;20043;-85
2023/03/01 02:21:51;;;;;;;32.00;16.77;;;;;;;;;;4992659;28;20050;-85
2023/03/01 02:24:24;;;;;;;29.45;16.85;;;;;;;;;;4992151;28;20077;-84
2023/03/01 02:26:55;;;;;;;26.48;16.08;;;;;;;;;;4992433;28;20054;-85
2023/03/01 02:29:23;;;;;;;25.58;16.20;;;;;;;;;;4992366;28;20055;-84
2023/03/01 02:31:51;;;;;;;31.55;16.30;;;;;;;;;;4992477;28;20129;-84
2023/03/01 02:34:20;;;;;;;31.95;16.25;;;;;;;;;;4992231;28;20525;-84
2023/03/01 02:36:50;;;;;;;27.27;16.42;;;;;;;;;;4993352;28;20046;-84
2023/03/01 02:39:36;;;;;;;32.10;17.00;;;;;;;;;;4992162;28;20057;-84
2023/03/01 02:42:04;;;;;;;30.98;16.20;;;;;;;;;;4994817;28;20052;-84
2023/03/01 02:44:32;;;;;;;35.28;18.35;;;;;;;;;;4996711;28;20491;-85
2023/03/01 02:47:01;;;;;;;28.63;17.35;;;;;;;;;;4995510;28;20058;-83
2023/03/01 02:49:30;;;;;;;31.30;17.33;;;;;;;;;;4996500;28;20123;-84
2023/03/01 02:52:00;;;;;;;31.63;16.52;;;;;;;;;;4995644;28;20108;-84
2023/03/01 02:54:39;;;;;;;29.55;17.45;;;;;;;;;;4995322;28;20054;-84
2023/03/01 02:57:07;;;;;;;33.63;17.52;;;;;;;;;;4995234;28;20050;-84
2023/03/01 02:59:39;;;;;;;30.58;17.85;;;;;;;;;;4995316;28;20133;-84
2023/03/01 03:02:35;;;;;;;30.85;17.15;;;;;;;;;;4996563;28;20046;-83
2023/03/01 03:05:12;;;;;;;33.15;16.88;;;;;;;;;;4996293;28;20052;-84
2023/03/01 03:07:40;;;;;;;29.60;16.67;;;;;;;;;;4994862;28;20073;-84
2023/03/01 03:10:11;;;;;;;31.48;16.42;;;;;;;;;;4996054;28;20085;-84
2023/03/01 03:12:39;;;;;;;32.33;17.20;;;;;;;;;;4995062;28;20056;-84
2023/03/01 03:15:08;;;;;;;31.45;18.33;;;;;;;;;;4995013;28;20046;-84
2023/03/01 03:17:37;;;;;;;30.80;17.08;;;;;;;;;;4996188;28;20046;-84
2023/03/01 03:20:05;;;;;;;34.67;17.23;;;;;;;;;;4994834;28;20050;-84
2023/03/01 03:22:33;;;;;;;29.63;17.45;;;;;;;;;;4996101;28;20042;-84
2023/03/01 03:25:01;;;;;;;30.90;17.40;;;;;;;;;;4995958;28;20051;-83
2023/03/01 03:27:28;;;;;;;41.17;19.00;;;;;;;;;;4994502;28;20133;-84
2023/03/01 03:29:55;;;;;;;32.38;17.38;;;;;;;;;;4994667;28;20047;-84
2023/03/01 03:32:22;;;;;;;32.50;17.88;;;;;;;;;;4994474;28;20061;-84
2023/03/01 03:34:50;;;;;;;34.83;17.38;;;;;;;;;;4994674;28;20093;-84
2023/03/01 03:40:03;;;;;;;31.40;16.45;;;;;;;;;;4995591;28;20053;-84
2023/03/01 03:42:30;;;;;;;32.28;17.95;;;;;;;;;;4995488;28;20140;-84
2023/03/01 03:44:57;;;;;;;32.25;17.70;;;;;;;;;;4995685;28;20089;-84
2023/03/01 03:47:25;;;;;;;32.13;17.67;;;;;;;;;;4994209;28;20145;-84
2023/03/01 03:49:52;;;;;;;28.80;16.27;;;;;;;;;;4995370;28;20055;-84
2023/03/01 03:52:19;;;;;;;28.27;16.17;;;;;;;;;;4994207;28;20133;-85
2023/03/01 03:54:46;;;;;;;37.72;17.90;;;;;;;;;;4994248;28;20061;-84
2023/03/01 03:57:13;;;;;;;34.45;18.80;;;;;;;;;;4994201;28;20070;-85
2023/03/01 03:59:40;;;;;;;36.60;18.48;;;;;;;;;;4993883;28;20054;-84
2023/03/01 04:02:08;;;;;;;35.88;18.30;;;;;;;;;;4995092;28;20057;-84
2023/03/01 04:04:35;;;;;;;32.25;17.85;;;;;;;;;;4993801;28;20395;-84
2023/03/01 04:07:03;;;;;;;34.15;18.25;;;;;;;;;;4993836;28;20054;-84
2023/03/01 04:09:30;;;;;;;34.20;18.05;;;;;;;;;;4994837;28;20058;-83
2023/03/01 04:11:57;;;;;;;38.05;18.55;;;;;;;;;;4993938;28;20050;-84
2023/03/01 04:14:24;;;;;;;35.92;19.13;;;;;;;;;;4994989;28;20050;-85
2023/03/01 04:16:51;;;;;;;37.28;19.08;;;;;;;;;;4993887;28;20062;-85
2023/03/01 04:19:18;;;;;;;33.70;18.08;;;;;;;;;;4993772;28;20416;-85
2023/03/01 04:21:48;;;;;;;35.95;18.33;;;;;;;;;;4993757;28;20060;-85
2023/03/01 04:24:15;;;;;;;33.80;18.20;;;;;;;;;;4993657;28;20384;-85
2023/03/01 04:26:42;;;;;;;31.20;17.83;;;;;;;;;;4994684;28;20057;-85
2023/03/01 04:29:10;;;;;;;30.38;16.80;;;;;;;;;;4994799;28;20084;-85
2023/03/01 04:31:37;;;;;;;32.92;16.38;;;;;;;;;;4994655;28;20054;-85
2023/03/01 04:34:05;;;;;;;32.92;18.27;;;;;;;;;;4993550;28;20104;-85
2023/03/01 04:36:32;;;;;;;33.85;19.02;;;;;;;;;;4993538;28;20450;-85
2023/03/01 04:39:11;;;;;;;34.63;18.13;;;;;;;;;;4993435;28;20093;-85
2023/03/01 04:41:39;;;;;;;35.50;18.52;;;;;;;;;;4993426;28;20140;-85
2023/03/01 04:44:08;;;;;;;32.92;18.17;;;;;;;;;;4994565;28;20047;-85
2023/03/01 04:46:36;;;;;;;37.40;18.60;;;;;;;;;;4994460;28;20189;-85
2023/03/01 04:49:04;;;;;;;36.55;18.65;;;;;;;;;;4994359;28;20058;-85
2023/03/01 04:51:32;;;;;;;32.10;18.08;;;;;;;;;;4993417;28;20173;-85
2023/03/01 04:54:00;;;;;;;36.95;18.45;;;;;;;;;;4993280;28;20112;-85
2023/03/01 04:56:27;;;;;;;33.63;18.27;;;;;;;;;;4993314;28;20218;-85
2023/03/01 04:58:55;;;;;;;32.53;18.02;;;;;;;;;;4994100;28;20051;-84
2023/03/01 05:01:22;;;;;;;31.48;16.70;;;;;;;;;;4994452;28;20081;-85
2023/03/01 05:03:53;;;;;;;34.00;17.15;;;;;;;;;;4992938;28;20050;-85
2023/03/01 05:06:21;;;;;;;33.47;16.67;;;;;;;;;;4993678;28;20050;-85
2023/03/01 05:08:49;;;;;;;39.67;17.75;;;;;;;;;;4992891;28;20089;-85
2023/03/01 05:11:16;;;;;;;35.40;15.80;;;;;;;;;;4992906;28;20058;-86
2023/03/01 05:13:43;;;;;;;34.72;18.42;;;;;;;;;;4994281;28;20042;-87
2023/03/01 05:16:11;;;;;;;42.13;18.27;;;;;;;;;;4992860;28;20096;-87
2023/03/01 05:18:39;;;;;;;34.55;17.85;;;;;;;;;;4993046;28;20050;-87
2023/03/01 05:21:11;;;;;;;32.17;18.02;;;;;;;;;;4993118;28;20100;-87
2023/03/01 05:23:38;;;;;;;35.45;19.48;;;;;;;;;;4990933;28;20073;-87
2023/03/01 05:26:06;;;;;;;36.92;19.75;;;;;;;;;;4993005;28;20113;-87
2023/03/01 05:28:48;;;;;;;39.80;18.90;;;;;;;;;;4993258;28;20054;-87
2023/03/01 05:31:15;;;;;;;38.33;19.10;;;;;;;;;;4993393;28;20507;-87
2023/03/01 05:33:43;;;;;;;37.42;19.27;;;;;;;;;;4995200;28;20054;-87
2023/03/01 05:36:10;;;;;;;41.55;18.98;;;;;;;;;;4993085;28;20062;-87
2023/03/01 05:38:38;;;;;;;33.97;18.40;;;;;;;;;;4993022;28;20047;-86
2023/03/01 05:41:05;;;;;;;34.22;17.35;;;;;;;;;;4993137;28;20054;-88
2023/03/01 05:43:33;;;;;;;35.67;18.25;;;;;;;;;;4992787;28;20058;-87
2023/03/01 05:46:01;;;;;;;39.17;18.60;;;;;;;;;;4992826;28;20058;-87
2023/03/01 05:48:28;;;;;;;39.45;18.80;;;;;;;;;;4992742;28;20078;-87
2023/03/01 05:50:55;;;;;;;36.10;18.92;;;;;;;;;;4992698;28;20078;-88
2023/03/01 05:53:23;;;;;;;35.42;18.30;;;;;;;;;;4992801;28;20595;-88
2023/03/01 05:55:51;;;;;;;40.50;18.38;;;;;;;;;;4993818;28;20050;-87
2023/03/01 05:58:19;;;;;;;35.45;17.58;;;;;;;;;;4992964;28;20130;-87
2023/03/01 06:00:48;;;;;;;40.70;20.33;;;;;;;;;;4994141;28;20054;-88
2023/03/01 06:03:16;;;;;;;39.65;19.65;;;;;;;;;;4992884;28;20068;-87
2023/03/01 06:05:44;;;;;;;43.05;19.38;;;;;;;;;;4994243;28;20391;-87
2023/03/01 06:08:12;;;;;;;36.47;17.52;;;;;;;;;;4992579;28;20104;-87
2023/03/01 06:10:40;;;;;;;44.90;18.83;;;;;;;;;;4992924;28;20105;-87
2023/03/01 06:13:07;;;;;;;43.67;19.90;;;;;;;;;;4992348;28;20506;-87
2023/03/01 06:15:35;;;;;;;41.58;20.55;;;;;;;;;;4992312;28;20054;-87
2023/03/01 06:18:02;;;;;;;38.47;19.40;;;;;;;;;;4996809;28;20054;-87
2023/03/01 06:20:29;;;;;;;45.15;20.48;;;;;;;;;;4997607;28;20047;-87
2023/03/01 06:22:57;;;;;;;41.28;19.27;;;;;;;;;;4997618;28;20046;-87
2023/03/01 06:25:25;;;;;;;43.83;20.00;;;;;;;;;;4996218;28;20050;-87
2023/03/01 06:27:53;;;;;;;37.78;19.15;;;;;;;;;;4996422;28;20133;-88
2023/03/01 06:30:21;;;;;;;36.13;19.67;;;;;;;;;;4996526;28;20084;-87
2023/03/01 06:32:50;;;;;;;38.63;19.15;;;;;;;;;;4996514;28;20053;-87
2023/03/01 06:35:18;;;;;;;38.70;20.30;;;;;;;;;;4997308;28;20046;-87
2023/03/01 06:37:46;;;;;;;38.67;20.33;;;;;;;;;;4997227;28;20054;-87
2023/03/01 06:40:13;;;;;;;38.78;20.73;;;;;;;;;;4996074;28;20054;-87
2023/03/01 06:42:43;;;;;;;34.40;19.25;;;;;;;;;;4995903;28;20054;-87
2023/03/01 06:45:11;;;;;;;41.55;21.67;;;;;;;;;;4997018;28;20501;-88
2023/03/01 06:47:38;;;;;;;43.90;23.58;;;;;;;;;;4995782;28;20134;-87
2023/03/01 06:50:06;;;;;;;50.28;24.63;;;;;;;;;;4995869;28;20133;-88
2023/03/01 06:52:33;;;;;;;55.50;29.23;;;;;;;;;;4997020;28;20120;-88
2023/03/01 06:55:01;;;;;;;42.15;22.30;;;;;;;;;;4995594;28;20499;-88
2023/03/01 06:57:28;;;;;;;46.67;23.35;;;;;;;;;;4997271;28;20048;-88
2023/03/01 06:59:56;;;;;;;48.95;24.70;;;;;;;;;;4995605;28;20054;-87
2023/03/01 07:02:23;;;;;;;49.58;26.55;;;;;;;;;;4995705;28;20054;-87
2023/03/01 07:04:51;;;;;;;51.38;27.95;;;;;;;;;;4995800;28;20050;-88
2023/03/01 07:07:19;;;;;;;48.78;25.60;;;;;;;;;;4995315;28;20051;-88
2023/03/01 07:09:46;;;;;;;42.03;22.58;;;;;;;;;;4996500;28;20483;-88
2023/03/01 07:12:13;;;;;;;43.47;22.17;;;;;;;;;;4995077;28;20058;-88
2023/03/01 07:14:41;;;;;;;39.80;20.25;;;;;;;;;;4996735;28;20104;-87
2023/03/01 07:17:08;;;;;;;43.08;19.88;;;;;;;;;;4996306;28;20061;-87
2023/03/01 07:19:36;;;;;;;41.65;20.45;;;;;;;;;;4995461;28;20133;-88
2023/03/01 07:22:04;;;;;;;41.38;20.73;;;;;;;;;;4995224;28;20056;-88
2023/03/01 07:24:31;;;;;;;45.95;21.90;;;;;;;;;;4995512;28;20121;-87
2023/03/01 07:26:58;;;;;;;55.28;24.27;;;;;;;;;;4994564;28;20056;-88
2023/03/01 07:29:25;;;;;;;48.10;23.00;;;;;;;;;;4995011;28;20060;-86
2023/03/01 07:31:53;;;;;;;50.85;22.08;;;;;;;;;;4995178;28;20519;-88
2023/03/01 07:34:20;;;;;;;43.67;22.92;;;;;;;;;;4994815;28;20054;-87
2023/03/01 07:36:47;;;;;;;50.35;22.73;;;;;;;;;;4995136;28;20049;-88
2023/03/01 07:39:14;;;;;;;48.63;21.90;;;;;;;;;;4995218;28;20487;-87
2023/03/01 07:41:44;;;;;;;45.38;23.67;;;;;;;;;;4995081;28;20403;-87
2023/03/01 07:44:11;;;;;;;48.65;23.83;;;;;;;;;;4995955;28;20050;-88
2023/03/01 07:46:38;;;;;;;48.53;23.73;;;;;;;;;;4994939;28;20498;-88
2023/03/01 07:49:05;;;;;;;46.47;23.90;;;;;;;;;;4995978;28;20479;-88
2023/03/01 07:51:33;;;;;;;65.85;26.40;;;;;;;;;;4994972;28;20137;-88
2023/03/01 07:54:00;;;;;;;63.75;29.35;;;;;;;;;;4995043;28;20065;-88
2023/03/01 07:56:27;;;;;;;66.00;32.97;;;;;;;;;;4994972;28;20052;-88
2023/03/01 07:58:55;;;;;;;75.68;35.63;;;;;;;;;;4995984;28;20051;-88
2023/03/01 08:01:23;;;;;;;83.18;35.35;;;;;;;;;;4994656;28;20089;-88
2023/03/01 08:03:51;;;;;;;79.95;36.92;;;;;;;;;;4996015;28;20042;-88
2023/03/01 08:06:18;;;;;;;84.72;37.15;;;;;;;;;;4995969;28;20050;-89
2023/03/01 08:08:46;;;;;;;59.88;29.98;;;;;;;;;;4995412;28;20066;-89
2023/03/01 08:11:14;;;;;;;56.25;28.70;;;;;;;;;;4994668;28;20047;-89
2023/03/01 08:13:42;;;;;;;45.90;22.48;;;;;;;;;;4994942;28;20073;-89
2023/03/01 08:16:14;;;;;;;47.85;17.85;;;;;;;;;;4994396;28;20061;-89
2023/03/01 08:18:41;;;;;;;45.08;18.33;;;;;;;;;;4994688;28;20557;-89
2023/03/01 08:21:16;;;;;;;35.08;14.98;;;;;;;;;;4994800;28;20129;-88
2023/03/01 08:23:44;;;;;;;33.83;14.35;;;;;;;;;;4994355;28;20050;-88
2023/03/01 08:26:19;;;;;;;27.85;15.52;;;;;;;;;;4994429;28;20395;-90
2023/03/01 08:28:47;;;;;;;28.90;15.07;;;;;;;;;;4994332;28;20104;-89
2023/03/01 08:31:15;;;;;;;49.95;16.80;;;;;;;;;;4994328;28;20072;-90
2023/03/01 08:33:42;;;;;;;48.70;15.88;;;;;;;;;;4994261;28;20242;-89
2023/03/01 08:36:09;;;;;;;33.58;15.65;;;;;;;;;;4994181;28;20546;-90
2023/03/01 08:38:36;;;;;;;33.08;16.00;;;;;;;;;;4994233;28;20129;-90
2023/03/01 08:41:06;;;;;;;49.03;16.63;;;;;;;;;;4993767;28;20490;-90
2023/03/01 08:43:33;;;;;;;37.47;17.60;;;;;;;;;;4994265;28;20054;-90
2023/03/01 08:46:00;;;;;;;26.05;17.10;;;;;;;;;;4994130;28;20050;-90
2023/03/01 08:48:28;;;;;;;34.80;18.08;;;;;;;;;;4994101;28;20084;-90
2023/03/01 08:50:56;;;;;;;30.38;18.27;;;;;;;;;;4993998;28;20054;-90
2023/03/01 08:53:23;;;;;;;24.05;18.45;;;;;;;;;;4994056;28;20462;-90
2023/03/01 08:55:50;;;;;;;26.42;18.40;;;;;;;;;;4995196;28;20491;-90
2023/03/01 08:58:17;;;;;;;33.30;18.85;;;;;;;;;;4993986;28;20064;-90
2023/03/01 09:00:47;;;;;;;27.75;19.40;;;;;;;;;;4999581;28;20047;-90
2023/03/01 09:03:14;;;;;;;26.88;19.00;;;;;;;;;;4996297;28;20058;-90
2023/03/01 09:05:42;;;;;;;31.48;18.52;;;;;;;;;;4996241;28;20133;-89
2023/03/01 09:08:09;;;;;;;29.67;18.52;;;;;;;;;;4995927;28;20121;-90
2023/03/01 09:10:38;;;;;;;28.27;18.90;;;;;;;;;;4996010;28;20046;-90
2023/03/01 09:13:05;;;;;;;27.98;18.67;;;;;;;;;;4996211;28;20062;-88
2023/03/01 09:15:33;;;;;;;30.23;18.20;;;;;;;;;;4995870;28;20392;-87
2023/03/01 09:18:00;;;;;;;26.42;18.30;;;;;;;;;;4996703;28;20058;-87
2023/03/01 09:20:28;;;;;;;29.67;18.75;;;;;;;;;;4995024;28;20057;-87
2023/03/01 09:22:55;;;;;;;29.02;19.83;;;;;;;;;;4995841;28;20129;-88
2023/03/01 09:25:22;;;;;;;28.13;17.48;;;;;;;;;;4995161;28;20061;-90
2023/03/01 09:27:53;;;;;;;25.45;18.70;;;;;;;;;;4995183;28;20050;-90
2023/03/01 09:30:21;;;;;;;28.73;18.35;;;;;;;;;;4995725;28;20046;-90
2023/03/01 09:32:48;;;;;;;26.92;18.27;;;;;;;;;;4995588;28;20525;-89
2023/03/01 09:35:15;;;;;;;33.25;18.38;;;;;;;;;;4995246;28;20074;-90
2023/03/01 09:37:44;;;;;;;23.17;17.23;;;;;;;;;;4994727;28;20061;-89
2023/03/01 09:40:17;;;;;;;35.20;18.67;;;;;;;;;;4993673;28;20081;-90
2023/03/01 09:43:00;;;;;;;29.02;18.38;;;;;;;;;;4993685;28;20505;-89
2023/03/01 09:45:34;;;;;;;24.70;17.73;;;;;;;;;;4993491;28;20503;-89
2023/03/01 09:48:02;;;;;;;26.20;18.20;;;;;;;;;;4993443;28;20069;-89
2023/03/01 09:50:34;;;;;;;25.20;18.60;;;;;;;;;;4994031;28;20046;-89
2023/03/01 09:53:07;;;;;;;26.85;18.90;;;;;;;;;;4997339;28;20050;-89
2023/03/01 09:55:39;;;;;;;30.10;16.85;;;;;;;;;;4997477;28;20068;-89
2023/03/01 09:58:24;;;;;;;25.95;17.25;;;;;;;;;;4997327;28;20050;-90
2023/03/01 10:00:51;;;;;;;24.88;17.60;;;;;;;;;;4997695;28;20054;-90
2023/03/01 10:03:25;;;;;;;24.83;17.80;;;;;;;;;;4997248;28;20498;-90
2023/03/01 10:05:57;;;;;;;25.23;17.23;;;;;;;;;;4997209;28;20057;-90
2023/03/01 10:08:29;;;;;;;28.67;17.60;;;;;;;;;;4996914;28;20054;-90
2023/03/01 10:10:56;;;;;;;22.95;17.08;;;;;;;;;;4997428;28;20074;-91
2023/03/01 10:13:25;;;;;;;25.92;18.95;;;;;;;;;;4997174;28;20078;-90
2023/03/01 10:16:06;;;;;;;24.88;18.70;;;;;;;;;;4997020;28;20061;-90
2023/03/01 10:18:36;;;;;;;26.33;17.40;;;;;;;;;;4997055;28;20139;-90
2023/03/01 10:21:08;;;;;;;25.25;17.08;;;;;;;;;;4996857;28;20055;-90
2023/03/01 10:23:36;;;;;;;24.02;16.98;;;;;;;;;;4996859;28;20054;-90
2023/03/01 10:26:22;;;;;;;28.23;17.45;;;;;;;;;;4996773;28;20046;-90
2023/03/01 10:29:03;;;;;;;37.95;18.58;;;;;;;;;;4996733;28;20061;-87
2023/03/01 10:31:37;;;;;;;27.13;16.83;;;;;;;;;;4996668;28;20402;-88
2023/03/01 10:34:12;;;;;;;19.73;16.30;;;;;;;;;;4996474;28;20050;-87
2023/03/01 10:36:40;;;;;;;21.83;15.88;;;;;;;;;;4996837;28;20050;-88
2023/03/01 10:39:22;;;;;;;22.08;16.25;;;;;;;;;;4996530;28;20084;-88
2023/03/01 10:42:05;;;;;;;20.45;15.43;;;;;;;;;;4996548;28;20058;-87
2023/03/01 10:44:33;;;;;;;;;;;;;;;;;;4996957;28;20050;-88
2023/03/01 10:47:01;;;;;;;21.52;16.33;;;;;;;;;;4996491;28;19928;-88
2023/03/01 10:49:28;;;;;;;21.35;16.38;;;;;;;;;;4996328;28;20631;-87
2023/03/01 10:51:56;;;;;;;23.15;15.70;;;;;;;;;;4996389;28;20081;-87
2023/03/01 10:54:26;;;;;;;22.88;15.45;;;;;;;;;;4996206;28;20054;-87
2023/03/01 10:56:55;;;;;;;23.83;15.55;;;;;;;;;;4996467;28;20050;-87
2023/03/01 10:59:27;;;;;;;20.02;14.98;;;;;;;;;;4998105;28;20084;-89
2023/03/01 11:02:03;;;;;;;24.75;15.43;;;;;;;;;;4997310;28;20149;-90
2023/03/01 11:04:56;;;;;;;31.55;15.20;;;;;;;;;;4998471;28;20138;-89
2023/03/01 11:07:23;;;;;;;19.83;13.95;;;;;;;;;;4996177;28;20055;-89
2023/03/01 11:09:51;;;;;;;22.13;14.05;;;;;;;;;;4995622;28;20092;-90
2023/03/01 11:12:18;;;;;;;23.90;14.00;;;;;;;;;;4995943;28;20129;-90
2023/03/01 11:14:53;;;;;;;19.08;13.77;;;;;;;;;;4995939;28;20142;-90
2023/03/01 11:17:27;;;;;;;17.55;13.10;;;;;;;;;;4995898;28;20058;-90
2023/03/01 11:20:13;;;;;;;19.73;13.45;;;;;;;;;;4995829;28;20047;-89
2023/03/01 11:22:53;;;;;;;17.60;13.05;;;;;;;;;;4995723;28;20051;-90
2023/03/01 11:25:24;;;;;;;19.40;13.48;;;;;;;;;;4995581;28;20050;-89
2023/03/01 11:27:52;;;;;;;17.05;13.38;;;;;;;;;;4995785;28;20047;-90
2023/03/01 11:30:19;;;;;;;21.75;13.65;;;;;;;;;;4995559;28;20053;-90
2023/03/01 11:32:51;;;;;;;19.38;12.77;;;;;;;;;;4995789;28;20498;-89
2023/03/01 11:35:22;;;;;;;19.25;13.70;;;;;;;;;;4995833;28;20136;-90
2023/03/01 11:37:52;;;;;;;17.88;12.93;;;;;;;;;;4995671;28;20411;-90
2023/03/01 11:40:24;;;;;;;17.98;13.40;;;;;;;;;;4995329;28;20110;-90
2023/03/01 11:42:57;;;;;;;17.10;13.32;;;;;;;;;;4995555;28;20054;-90
2023/03/01 11:45:26;;;;;;;16.77;13.70;;;;;;;;;;4995523;28;20054;-91
2023/03/01 11:47:59;;;;;;;22.27;13.68;;;;;;;;;;4995412;28;20054;-90
2023/03/01 11:50:29;;;;;;;20.75;13.82;;;;;;;;;;4995110;28;20051;-90
2023/03/01 11:53:15;;;;;;;19.58;14.00;;;;;;;;;;4995586;28;20054;-89
2023/03/01 11:55:55;;;;;;;21.92;14.13;;;;;;;;;;4995836;28;20047;-89
2023/03/01 11:58:44;;;;;;;19.13;14.05;;;;;;;;;;4995202;28;20053;-90
2023/03/01 12:01:28;;;;;;;16.50;13.68;;;;;;;;;;4995211;28;20054;-89
2023/03/01 12:04:18;;;;;;;21.27;14.20;;;;;;;;;;4994920;28;20100;-89
2023/03/01 12:06:51;;;;;;;19.02;13.00;;;;;;;;;;4994882;28;20101;-90
2023/03/01 12:09:35;;;;;;;21.35;14.55;;;;;;;;;;4994557;28;20059;-89
2023/03/01 12:12:18;;;;;;;22.73;19.55;;;;;;;;;;4994704;28;20077;-88
2023/03/01 12:14:55;;;;;;;18.98;15.00;;;;;;;;;;4994612;28;20138;-88
2023/03/01 12:17:38;;;;;;;24.20;15.35;;;;;;;;;;4994635;28;20133;-90
2023/03/01 12:20:15;;;;;;;18.98;14.05;;;;;;;;;;4994849;28;20050;-89
2023/03/01 12:22:54;;;;;;;25.88;16.40;;;;;;;;;;4994618;28;20046;-89
2023/03/01 12:25:43;;;;;;;49.38;26.15;;;;;;;;;;4994675;28;20058;-89
2023/03/01 12:28:30;;;;;;;53.13;31.48;;;;;;;;;;4994428;28;20050;-87
2023/03/01 12:31:20;;;;;;;35.30;21.30;;;;;;;;;;4994478;28;20145;-90
2023/03/01 12:33:55;;;;;;;32.67;20.85;;;;;;;;;;4975807;28;20081;-90
2023/03/01 12:36:39;;;;;;;46.00;26.85;;;;;;;;;;4995275;28;20157;-89
2023/03/01 12:39:15;;;;;;;71.75;39.00;;;;;;;;;;4994256;28;20058;-90
2023/03/01 12:41:56;;;;;;;20.70;14.95;;;;;;;;;;4994122;28;20575;-89
2023/03/01 12:44:42;;;;;;;51.38;30.55;;;;;;;;;;4995077;28;20061;-89
2023/03/01 12:47:29;;;;;;;40.05;24.23;;;;;;;;;;4994706;28;20057;-90
2023/03/01 12:50:00;;;;;;;29.25;19.65;;;;;;;;;;4994686;28;20056;-89
2023/03/01 12:52:33;;;;;;;71.05;52.33;;;;;;;;;;4994883;28;20078;-89
2023/03/01 12:55:01;;;;;;;;;;;;;;;;;;4995883;28;20081;-89
2023/03/01 12:57:38;;;;;;;37.53;25.90;;;;;;;;;;4995090;28;19928;-89
2023/03/01 13:00:07;;;;;;;32.22;23.33;;;;;;;;;;4994788;28;20046;-90
2023/03/01 13:02:42;;;;;;;28.73;20.67;;;;;;;;;;4995302;28;20513;-89
2023/03/01 13:05:28;;;;;;;47.75;28.92;;;;;;;;;;4994588;28;20061;-89
2023/03/01 13:08:06;;;;;;;24.48;16.17;;;;;;;;;;4994435;28;20582;-89
2023/03/01 13:10:41;;;;;;;22.90;15.27;;;;;;;;;;4994632;28;20056;-88
2023/03/01 13:13:13;;;;;;;26.90;15.35;;;;;;;;;;4995193;28;20057;-90
2023/03/01 13:15:40;;;;;;;47.50;28.70;;;;;;;;;;4995261;28;20086;-89
2023/03/01 13:18:19;;;;;;;29.85;20.60;;;;;;;;;;4994501;28;20051;-90
2023/03/01 13:20:47;;;;;;;24.23;15.18;;;;;;;;;;4994512;28;20144;-90
2023/03/01 13:23:21;;;;;;;24.33;15.48;;;;;;;;;;4994742;28;20050;-88
2023/03/01 13:25:57;;;;;;;24.17;14.57;;;;;;;;;;4994121;28;20177;-89
2023/03/01 13:28:43;;;;;;;25.27;14.27;;;;;;;;;;4994553;28;20121;-90
2023/03/01 13:31:30;;;;;;;24.95;15.63;;;;;;;;;;4994373;28;20101;-89
2023/03/01 13:33:59;;;;;;;23.23;14.85;;;;;;;;;;4994822;28;20050;-89
2023/03/01 13:36:46;;;;;;;21.02;15.38;;;;;;;;;;4994806;28;20060;-88
2023/03/01 13:39:27;;;;;;;21.33;14.52;;;;;;;;;;4994387;28;20050;-89
2023/03/01 13:41:57;;;;;;;22.45;14.45;;;;;;;;;;4993364;28;20058;-89
2023/03/01 13:44:25;;;;;;;20.30;13.05;;;;;;;;;;4994368;28;20482;-88
2023/03/01 13:46:56;;;;;;;23.83;14.35;;;;;;;;;;4994236;28;20054;-89
2023/03/01 13:49:25;;;;;;;22.45;13.85;;;;;;;;;;4993513;28;20085;-88
2023/03/01 13:51:55;;;;;;;26.55;15.35;;;;;;;;;;4994536;28;20046;-89
2023/03/01 13:54:28;;;;;;;22.10;14.55;;;;;;;;;;4994330;28;20054;-89
2023/03/01 13:56:56;;;;;;;22.27;14.18;;;;;;;;;;4993712;28;20105;-88
2023/03/01 13:59:26;;;;;;;42.55;15.00;;;;;;;;;;4994161;28;20137;-87
2023/03/01 14:01:55;;;;;;;26.15;14.38;;;;;;;;;;4994248;28;20124;-88
2023/03/01 14:04:23;;;;;;;25.23;14.30;;;;;;;;;;4993935;28;20122;-88
2023/03/01 14:06:51;;;;;;;25.38;14.82;;;;;;;;;;4993246;28;20085;-87
2023/03/01 14:09:20;;;;;;;20.90;14.05;;;;;;;;;;4992757;28;20116;-88
2023/03/01 14:11:55;;;;;;;21.80;14.85;;;;;;;;;;4993229;28;20077;-89
2023/03/01 14:14:22;;;;;;;24.55;14.55;;;;;;;;;;4992947;28;20499;-87
2023/03/01 14:17:07;;;;;;;23.38;13.48;;;;;;;;;;4993200;28;20058;-88
2023/03/01 14:19:34;;;;;;;19.10;13.68;;;;;;;;;;4993235;28;20062;-88
2023/03/01 14:22:13;;;;;;;23.20;14.63;;;;;;;;;;4992971;28;20050;-88
2023/03/01 14:24:52;;;;;;;19.95;13.73;;;;;;;;;;4993027;28;20410;-88
2023/03/01 14:27:20;;;;;;;26.33;14.15;;;;;;;;;;4993112;28;20055;-88
2023/03/01 14:30:01;;;;;;;21.30;14.00;;;;;;;;;;4993100;28;20081;-88
2023/03/01 14:32:29;;;;;;;27.17;14.93;;;;;;;;;;5004208;28;20148;-89
2023/03/01 14:34:57;;;;;;;21.20;14.52;;;;;;;;;;5011617;28;20417;-88
2023/03/01 14:37:24;;;;;;;22.30;14.60;;;;;;;;;;5012258;28;20133;-89
2023/03/01 14:39:52;;;;;;;22.08;14.70;;;;;;;;;;5015836;28;20137;-88